Time;durP1;ratioP1;P1;durP2;ratioP2;P2;SDS_P1;SDS_P2;PMS_P1;PMS_P2;Temp;Humidity;BMP_temperature;BMP_pressure;BME280_temperature;BME280_humidity;BME280_pressure;Samples;Min_cycle;Max_cycle;Signal;HPM_P1;HPM_P2
2022/10/22 00:01:01;;;;;;;;;;;16.70;72.90;;;;;;5071583;28;19921;-68
2022/10/22 00:03:26;;;;;;;;;;;16.70;72.90;;;;;;5071606;28;19928;-67
2022/10/22 00:05:52;;;;;;;;;;;16.70;72.90;;;;;;5071185;28;20007;-67
2022/10/22 00:08:17;;;;;;;;;;;16.70;72.90;;;;;;5071633;28;19920;-68
2022/10/22 00:10:43;;;;;;;;;;;16.70;72.90;;;;;;5071196;28;20015;-68
2022/10/22 00:13:09;;;;;;;;;;;16.70;72.80;;;;;;5072399;28;19920;-68
2022/10/22 00:15:35;;;;;;;;;;;16.70;72.90;;;;;;5072529;28;19920;-67
2022/10/22 00:18:00;;;;;;;;;;;16.70;72.90;;;;;;5071160;28;20311;-67
2022/10/22 00:20:26;;;;;;;;;;;16.70;72.90;;;;;;5071449;28;19928;-67
2022/10/22 00:22:51;;;;;;;;;;;16.70;72.80;;;;;;5071412;28;20391;-68
2022/10/22 00:25:17;;;;;;;;;;;16.60;72.80;;;;;;5071084;28;20410;-67
2022/10/22 00:27:42;;;;;;;;;;;16.60;72.80;;;;;;5071314;28;19927;-67
2022/10/22 00:30:09;;;;;;;;;;;16.70;72.90;;;;;;5071046;28;20461;-67
2022/10/22 00:32:34;;;;;;;;;;;16.60;72.70;;;;;;5071298;28;20331;-67
2022/10/22 00:35:00;;;;;;;;;;;16.60;72.70;;;;;;5070973;28;19930;-67
2022/10/22 00:37:25;;;;;;;;;;;16.70;72.80;;;;;;5072076;28;19924;-67
2022/10/22 00:39:51;;;;;;;;;;;16.60;72.70;;;;;;5071314;28;20022;-67
2022/10/22 00:42:18;;;;;;;;;;;16.60;72.80;;;;;;5070196;28;20281;-67
2022/10/22 00:45:03;;;;;;;;;;;16.60;72.70;;;;;;5071267;28;19931;-68
2022/10/22 00:47:31;;;;;;;;;;;16.60;72.80;;;;;;5070621;28;20449;-67
2022/10/22 00:49:58;;;;;;;;;;;16.60;72.70;;;;;;5054474;28;19963;-67
2022/10/22 00:52:24;;;;;;;;;;;16.60;72.70;;;;;;5071354;28;20420;-67
2022/10/22 00:54:50;;;;;;;;;;;16.60;72.70;;;;;;5070801;28;19967;-67
2022/10/22 00:57:17;;;;;;;;;;;16.60;72.70;;;;;;5070673;28;19924;-67
2022/10/22 00:59:42;;;;;;;;;;;16.60;72.70;;;;;;5071052;28;19994;-68
2022/10/22 01:02:08;;;;;;;;;;;16.60;72.70;;;;;;5072033;28;20392;-68
2022/10/22 01:04:33;;;;;;;;;;;16.60;72.70;;;;;;5070683;28;19928;-67
2022/10/22 01:07:00;;;;;;;;;;;16.60;72.70;;;;;;5070742;28;19966;-68
2022/10/22 01:09:43;;;;;;;;;;;16.60;72.80;;;;;;5070977;28;19928;-68
2022/10/22 01:12:13;;;;;;;;;;;16.60;72.70;;;;;;5071976;28;20372;-67
2022/10/22 01:17:39;;;;;;;;;;;16.60;72.80;;;;;;5142859;27;19928;-67
2022/10/22 01:22:53;;;;;;;;;;;16.60;72.70;;;;;;5122857;27;20283;-67
2022/10/22 01:25:26;;;;;;;;;;;16.60;72.70;;;;;;5088500;28;19920;-68
2022/10/22 01:27:59;;;;;;;;;;;16.60;72.70;;;;;;5088567;28;20411;-67
2022/10/22 01:30:25;;;;;;;;;;;16.60;72.70;;;;;;5088818;28;19977;-68
2022/10/22 01:32:52;;;;;;;;;;;16.60;72.70;;;;;;5122612;28;19924;-67
2022/10/22 01:35:22;;;;;;;;;;;16.50;72.70;;;;;;5088480;28;19965;-67
2022/10/22 01:37:49;;;;;;;;;;;16.50;72.70;;;;;;5088371;28;20398;-67
2022/10/22 01:40:16;;;;;;;;;;;16.50;72.70;;;;;;5088119;28;19921;-67
2022/10/22 01:42:41;;;;;;;;;;;16.50;72.70;;;;;;5088213;28;19921;-68
2022/10/22 01:45:11;;;;;;;;;;;16.50;72.70;;;;;;5088515;28;19985;-68
2022/10/22 01:47:56;;;;;;;;;;;16.50;72.70;;;;;;5089631;28;19969;-67
2022/10/22 01:53:20;;;;;;;;;;;16.50;72.60;;;;;;5166285;27;800857;-68
2022/10/22 01:56:05;;;;;;;;;;;16.50;72.60;;;;;;5195474;27;19926;-67
2022/10/22 01:58:37;;;;;;;;;;;16.50;72.60;;;;;;5195110;27;19922;-67
2022/10/22 02:01:22;;;;;;;;;;;16.50;72.70;;;;;;5195600;27;19925;-67
2022/10/22 02:04:00;;;;;;;;;;;16.50;72.70;;;;;;5195208;27;19925;-68
2022/10/22 02:06:26;;;;;;;;;;;16.50;72.70;;;;;;5195640;27;19982;-68
2022/10/22 02:08:53;;;;;;;;;;;16.50;72.70;;;;;;5195354;27;20357;-67
2022/10/22 02:11:19;;;;;;;;;;;16.50;72.60;;;;;;5195309;27;19961;-67
2022/10/22 02:13:47;;;;;;;;;;;16.50;72.60;;;;;;5195120;27;19972;-67
2022/10/22 02:16:15;;;;;;;;;;;16.50;72.60;;;;;;5195319;27;19918;-67
2022/10/22 02:18:42;;;;;;;;;;;16.50;72.70;;;;;;5213989;27;19923;-67
2022/10/22 02:21:07;;;;;;;;;;;16.50;72.70;;;;;;5195351;27;19922;-67
2022/10/22 02:23:33;;;;;;;;;;;16.50;72.70;;;;;;5213935;27;19919;-67
2022/10/22 02:26:02;;;;;;;;;;;16.40;72.50;;;;;;5194884;27;19965;-67
2022/10/22 02:28:31;;;;;;;;;;;16.50;72.60;;;;;;5213768;27;19919;-68
2022/10/22 02:31:00;;;;;;;;;;;16.40;72.60;;;;;;5194914;27;19918;-67
2022/10/22 02:33:28;;;;;;;;;;;16.50;72.60;;;;;;5213778;27;19918;-67
2022/10/22 02:35:54;;;;;;;;;;;16.50;72.70;;;;;;5213736;27;19969;-68
2022/10/22 02:38:21;;;;;;;;;;;16.40;72.70;;;;;;5194712;27;20455;-67
2022/10/22 02:40:47;;;;;;;;;;;16.20;72.50;;;;;;5194818;27;20273;-67
2022/10/22 02:43:12;;;;;;;;;;;16.40;72.60;;;;;;5203908;27;19919;-67
2022/10/22 02:45:38;;;;;;;;;;;16.40;72.70;;;;;;5192432;27;20276;-67
2022/10/22 02:48:03;;;;;;;;;;;16.50;72.60;;;;;;5173476;27;19918;-67
2022/10/22 02:50:29;;;;;;;;;;;16.40;72.60;;;;;;5173666;27;19919;-67
2022/10/22 02:52:54;;;;;;;;;;;16.40;72.60;;;;;;5173090;27;19930;-67
2022/10/22 02:55:20;;;;;;;;;;;16.50;72.70;;;;;;5192096;27;20020;-68
2022/10/22 02:57:46;;;;;;;;;;;16.40;72.60;;;;;;5192022;27;20284;-67
2022/10/22 03:00:11;;;;;;;;;;;16.40;72.60;;;;;;5173221;27;19922;-67
2022/10/22 03:02:37;;;;;;;;;;;16.40;72.60;;;;;;5171325;27;19918;-67
2022/10/22 03:05:02;;;;;;;;;;;16.40;72.70;;;;;;5159383;27;20366;-68
2022/10/22 03:07:28;;;;;;;;;;;16.40;72.60;;;;;;5177794;27;19978;-68
2022/10/22 03:09:53;;;;;;;;;;;16.40;72.60;;;;;;5159147;27;19925;-67
2022/10/22 03:12:19;;;;;;;;;;;16.40;72.60;;;;;;5177706;27;19922;-67
2022/10/22 03:14:45;;;;;;;;;;;16.40;72.60;;;;;;5158991;27;20010;-67
2022/10/22 03:17:10;;;;;;;;;;;16.40;72.60;;;;;;5158956;27;19922;-67
2022/10/22 03:19:36;;;;;;;;;;;16.40;72.60;;;;;;5158906;27;19919;-67
2022/10/22 03:22:04;;;;;;;;;;;16.40;72.60;;;;;;5159126;27;19942;-67
2022/10/22 03:24:34;;;;;;;;;;;16.40;72.60;;;;;;5158894;27;20002;-67
2022/10/22 03:26:59;;;;;;;;;;;16.40;72.60;;;;;;5159100;27;19925;-67
2022/10/22 03:29:26;;;;;;;;;;;16.40;72.60;;;;;;5158720;27;20319;-67
2022/10/22 03:31:52;;;;;;;;;;;16.40;72.60;;;;;;5158835;27;20005;-67
2022/10/22 03:34:18;;;;;;;;;;;16.30;72.60;;;;;;5159062;27;19961;-68
2022/10/22 03:36:43;;;;;;;;;;;16.40;72.60;;;;;;5158107;27;20485;-68
2022/10/22 03:39:11;;;;;;;;;;;16.30;72.50;;;;;;5158868;27;19918;-68
2022/10/22 03:41:36;;;;;;;;;;;16.30;72.60;;;;;;5177133;27;19977;-67
2022/10/22 03:44:03;;;;;;;;;;;16.30;72.60;;;;;;5177033;27;20281;-68
2022/10/22 03:46:28;;;;;;;;;;;16.30;72.50;;;;;;5158427;27;19978;-67
2022/10/22 03:48:54;;;;;;;;;;;16.30;72.50;;;;;;5141266;27;19919;-67
2022/10/22 03:51:19;;;;;;;;;;;16.30;72.50;;;;;;5157990;27;19923;-68
2022/10/22 03:53:45;;;;;;;;;;;16.30;73.30;;;;;;5176812;27;19923;-67
2022/10/22 03:56:11;;;;;;;;;;;16.30;72.50;;;;;;5158532;27;20025;-67
2022/10/22 03:58:37;;;;;;;;;;;16.30;72.50;;;;;;5158055;27;20393;-67
2022/10/22 04:01:04;;;;;;;;;;;16.30;72.60;;;;;;5158409;27;19918;-67
2022/10/22 04:03:30;;;;;;;;;;;16.30;72.60;;;;;;5176968;27;20255;-67
2022/10/22 04:05:59;;;;;;;;;;;16.30;72.60;;;;;;5157959;27;19926;-67
2022/10/22 04:08:25;;;;;;;;;;;16.30;72.60;;;;;;5157942;27;19925;-67
2022/10/22 04:10:51;;;;;;;;;;;16.30;72.60;;;;;;5157824;27;19919;-67
2022/10/22 04:13:16;;;;;;;;;;;16.30;72.60;;;;;;5176452;27;19929;-67
2022/10/22 04:15:42;;;;;;;;;;;16.30;72.60;;;;;;5156756;27;19919;-67
2022/10/22 04:18:07;;;;;;;;;;;16.30;72.60;;;;;;5176574;27;19962;-67
2022/10/22 04:20:33;;;;;;;;;;;16.30;72.60;;;;;;5157729;27;20413;-67
2022/10/22 04:22:58;;;;;;;;;;;16.30;72.60;;;;;;5157627;27;19925;-67
2022/10/22 04:25:24;;;;;;;;;;;16.30;72.60;;;;;;5157587;27;19925;-67
2022/10/22 04:27:50;;;;;;;;;;;16.30;72.60;;;;;;5157877;27;20010;-67
2022/10/22 04:30:15;;;;;;;;;;;16.20;72.70;;;;;;5157355;27;20291;-67
2022/10/22 04:32:41;;;;;;;;;;;16.30;72.60;;;;;;5157493;27;19919;-67
2022/10/22 04:35:06;;;;;;;;;;;16.30;72.60;;;;;;5157430;27;20030;-67
2022/10/22 04:37:32;;;;;;;;;;;16.30;72.70;;;;;;5157370;27;19969;-68
2022/10/22 04:39:58;;;;;;;;;;;16.30;72.60;;;;;;5157043;27;19926;-67
2022/10/22 04:42:24;;;;;;;;;;;16.30;72.70;;;;;;5175935;27;19919;-67
2022/10/22 04:44:49;;;;;;;;;;;16.30;72.60;;;;;;5157100;27;20021;-66
2022/10/22 04:47:15;;;;;;;;;;;16.30;72.60;;;;;;5157191;27;19925;-67
2022/10/22 04:49:40;;;;;;;;;;;16.20;72.60;;;;;;5175987;27;20050;-67
2022/10/22 04:52:06;;;;;;;;;;;16.20;72.60;;;;;;5157065;27;20318;-67
2022/10/22 04:54:31;;;;;;;;;;;16.20;72.60;;;;;;5175623;27;20100;-67
2022/10/22 04:56:57;;;;;;;;;;;16.20;72.60;;;;;;5175715;27;20290;-67
2022/10/22 04:59:22;;;;;;;;;;;16.20;72.70;;;;;;5156971;27;20293;-67
2022/10/22 05:01:48;;;;;;;;;;;16.20;72.60;;;;;;5156818;27;19967;-67
2022/10/22 05:04:14;;;;;;;;;;;16.20;72.60;;;;;;5175961;27;19954;-67
2022/10/22 05:06:40;;;;;;;;;;;16.20;72.60;;;;;;5157052;27;19926;-67
2022/10/22 05:09:07;;;;;;;;;;;16.20;72.60;;;;;;5157188;27;20255;-67
2022/10/22 05:11:34;;;;;;;;;;;16.20;72.60;;;;;;5175312;27;20278;-67
2022/10/22 05:14:01;;;;;;;;;;;16.20;72.60;;;;;;5175498;27;19923;-68
2022/10/22 05:16:27;;;;;;;;;;;16.20;72.60;;;;;;5156532;27;20401;-67
2022/10/22 05:18:53;;;;;;;;;;;16.20;72.70;;;;;;5156607;27;19918;-67
2022/10/22 05:21:19;;;;;;;;;;;16.20;72.70;;;;;;5156885;27;19926;-68
2022/10/22 05:23:46;;;;;;;;;;;16.20;72.70;;;;;;5156558;27;20018;-67
2022/10/22 05:26:12;;;;;;;;;;;16.20;72.70;;;;;;5156479;27;20369;-67
2022/10/22 05:28:38;;;;;;;;;;;16.20;72.70;;;;;;5156818;27;19918;-68
2022/10/22 05:31:04;;;;;;;;;;;16.20;72.70;;;;;;5174915;27;20503;-67
2022/10/22 05:33:30;;;;;;;;;;;16.20;72.70;;;;;;5156458;27;20282;-67
2022/10/22 05:35:56;;;;;;;;;;;16.20;72.60;;;;;;5156355;27;19925;-68
2022/10/22 05:38:21;;;;;;;;;;;16.20;72.70;;;;;;5175270;27;19919;-67
2022/10/22 05:40:47;;;;;;;;;;;16.20;72.70;;;;;;5156691;27;19971;-67
2022/10/22 05:43:13;;;;;;;;;;;16.10;72.60;;;;;;5174907;27;19918;-68
2022/10/22 05:45:39;;;;;;;;;;;16.10;72.60;;;;;;5156827;27;19967;-67
2022/10/22 05:48:04;;;;;;;;;;;16.20;72.70;;;;;;5174804;27;19931;-68
2022/10/22 05:50:30;;;;;;;;;;;16.20;72.70;;;;;;5175374;27;19926;-68
2022/10/22 05:52:56;;;;;;;;;;;16.10;72.60;;;;;;5155915;27;20434;-68
2022/10/22 05:55:22;;;;;;;;;;;16.20;72.70;;;;;;5156191;27;19923;-67
2022/10/22 05:57:49;;;;;;;;;;;16.20;72.70;;;;;;5156025;27;19923;-67
2022/10/22 06:00:15;;;;;;;;;;;16.10;72.60;;;;;;5175248;27;20430;-68
2022/10/22 06:02:40;;;;;;;;;;;16.10;72.60;;;;;;5156268;27;19971;-68
2022/10/22 06:05:06;;;;;;;;;;;16.10;72.60;;;;;;5156135;27;19922;-68
2022/10/22 06:07:32;;;;;;;;;;;16.20;72.70;;;;;;5156196;27;19991;-68
2022/10/22 06:09:58;;;;;;;;;;;16.10;72.70;;;;;;5174838;27;19926;-67
2022/10/22 06:12:23;;;;;;;;;;;16.10;72.60;;;;;;5155813;27;19923;-67
2022/10/22 06:14:49;;;;;;;;;;;16.10;72.60;;;;;;5155995;27;20009;-67
2022/10/22 06:17:14;;;;;;;;;;;16.20;72.70;;;;;;5156121;27;19923;-67
2022/10/22 06:19:40;;;;;;;;;;;16.10;72.60;;;;;;5155914;27;19955;-67
2022/10/22 06:22:06;;;;;;;;;;;16.10;72.60;;;;;;5174570;27;20021;-68
2022/10/22 06:24:31;;;;;;;;;;;16.10;72.60;;;;;;5156335;27;20397;-67
2022/10/22 06:26:57;;;;;;;;;;;16.20;72.70;;;;;;5156168;27;19965;-68
2022/10/22 06:29:22;;;;;;;;;;;16.10;72.60;;;;;;5174464;27;19994;-68
2022/10/22 06:31:48;;;;;;;;;;;16.10;72.60;;;;;;5174373;27;19923;-67
2022/10/22 06:34:14;;;;;;;;;;;16.10;72.60;;;;;;5155715;27;19919;-68
2022/10/22 06:36:41;;;;;;;;;;;16.10;72.60;;;;;;5156036;27;20026;-67
2022/10/22 06:39:09;;;;;;;;;;;16.10;72.60;;;;;;5158283;27;20326;-68
2022/10/22 06:41:35;;;;;;;;;;;16.10;72.60;;;;;;5159600;27;19918;-68
2022/10/22 06:44:00;;;;;;;;;;;16.10;72.60;;;;;;5159601;27;19930;-68
2022/10/22 06:46:26;;;;;;;;;;;16.10;72.60;;;;;;5159962;27;19919;-67
2022/10/22 06:48:53;;;;;;;;;;;16.10;72.60;;;;;;5159775;27;20269;-67
2022/10/22 06:51:20;;;;;;;;;;;16.10;72.70;;;;;;5178148;27;19934;-67
2022/10/22 06:53:45;;;;;;;;;;;16.10;72.60;;;;;;5159646;27;19929;-67
2022/10/22 06:56:12;;;;;;;;;;;16.10;72.70;;;;;;5178084;27;20281;-67
2022/10/22 06:58:38;;;;;;;;;;;16.10;72.60;;;;;;5159290;27;19919;-67
2022/10/22 07:01:05;;;;;;;;;;;16.10;72.60;;;;;;5159401;27;19930;-67
2022/10/22 07:03:30;;;;;;;;;;;16.10;72.60;;;;;;5159568;27;19922;-68
2022/10/22 07:05:58;;;;;;;;;;;16.10;72.60;;;;;;5177749;27;20266;-68
2022/10/22 07:08:23;;;;;;;;;;;16.10;72.60;;;;;;5177898;27;19919;-68
2022/10/22 07:10:49;;;;;;;;;;;16.10;72.60;;;;;;5159053;27;20409;-68
2022/10/22 07:13:14;;;;;;;;;;;16.10;72.60;;;;;;5159020;27;19926;-67
2022/10/22 07:15:40;;;;;;;;;;;16.10;72.60;;;;;;5159150;27;19930;-68
2022/10/22 07:18:05;;;;;;;;;;;16.10;72.50;;;;;;5159208;27;19967;-68
2022/10/22 07:20:31;;;;;;;;;;;16.10;72.60;;;;;;5159057;27;19922;-68
2022/10/22 07:22:56;;;;;;;;;;;16.20;72.60;;;;;;5159190;27;20329;-68
2022/10/22 07:25:22;;;;;;;;;;;16.10;72.60;;;;;;5158799;27;20147;-67
2022/10/22 07:27:47;;;;;;;;;;;16.10;72.60;;;;;;5158761;27;19919;-68
2022/10/22 07:30:13;;;;;;;;;;;16.10;72.60;;;;;;5158939;27;19967;-68
2022/10/22 07:32:38;;;;;;;;;;;16.10;72.60;;;;;;5158615;27;20366;-67
2022/10/22 07:35:04;;;;;;;;;;;16.10;72.50;;;;;;5157955;27;19987;-67
2022/10/22 07:37:30;;;;;;;;;;;16.10;72.50;;;;;;5158985;27;19965;-68
2022/10/22 07:39:55;;;;;;;;;;;16.10;72.60;;;;;;5158810;27;20100;-68
2022/10/22 07:42:21;;;;;;;;;;;16.10;72.60;;;;;;5158434;27;19925;-67
2022/10/22 07:44:46;;;;;;;;;;;16.10;72.60;;;;;;5158474;27;19967;-68
2022/10/22 07:47:12;;;;;;;;;;;16.10;72.50;;;;;;5158541;27;19969;-68
2022/10/22 07:49:37;;;;;;;;;;;16.10;72.50;;;;;;5140941;27;20005;-67
2022/10/22 07:52:03;;;;;;;;;;;16.10;72.60;;;;;;5158092;27;20001;-68
2022/10/22 07:54:28;;;;;;;;;;;16.10;72.60;;;;;;5158247;27;19919;-68
2022/10/22 07:56:54;;;;;;;;;;;16.10;72.50;;;;;;5176821;27;19926;-67
2022/10/22 07:59:19;;;;;;;;;;;16.10;72.50;;;;;;5158516;27;19918;-67
2022/10/22 08:01:45;;;;;;;;;;;16.10;72.50;;;;;;5158464;27;19919;-68
2022/10/22 08:04:11;;;;;;;;;;;16.10;72.60;;;;;;5176787;27;19995;-68
2022/10/22 08:06:37;;;;;;;;;;;16.10;72.50;;;;;;5176565;27;19962;-67
2022/10/22 08:09:02;;;;;;;;;;;16.10;72.50;;;;;;5176671;27;20485;-68
2022/10/22 08:11:28;;;;;;;;;;;16.10;72.50;;;;;;5157837;27;19923;-67
2022/10/22 08:13:54;;;;;;;;;;;16.10;72.60;;;;;;5158205;27;19919;-67
2022/10/22 08:16:19;;;;;;;;;;;16.10;72.50;;;;;;5157739;27;19918;-67
2022/10/22 08:18:45;;;;;;;;;;;16.10;72.40;;;;;;5158024;27;19919;-68
2022/10/22 08:21:11;;;;;;;;;;;16.10;72.50;;;;;;5176302;27;20296;-67
2022/10/22 08:23:37;;;;;;;;;;;16.10;72.40;;;;;;5157687;27;19958;-67
2022/10/22 08:26:03;;;;;;;;;;;16.10;72.40;;;;;;5176447;27;19965;-68
2022/10/22 08:28:30;;;;;;;;;;;16.00;72.30;;;;;;5157811;27;19963;-67
2022/10/22 08:30:55;;;;;;;;;;;16.10;72.40;;;;;;5176334;27;19919;-68
2022/10/22 08:33:21;;;;;;;;;;;16.10;72.40;;;;;;5157363;27;19923;-68
2022/10/22 08:35:48;;;;;;;;;;;16.10;72.50;;;;;;5176219;27;19926;-68
2022/10/22 08:38:13;;;;;;;;;;;16.10;72.40;;;;;;5176178;27;19946;-68
2022/10/22 08:40:39;;;;;;;;;;;16.10;72.30;;;;;;5157029;27;20385;-67
2022/10/22 08:51:02;;;;;;;;;;;16.20;72.40;;;;;;5120120;27;19924;-67
2022/10/22 08:53:38;;;;;;;;;;;16.10;72.70;;;;;;5088557;28;19920;-67
2022/10/22 08:56:04;;;;;;;;;;;16.00;72.80;;;;;;5089479;28;20261;-67
2022/10/22 08:58:36;;;;;;;;;;;16.10;73.40;;;;;;5087236;28;19927;-68
2022/10/22 09:01:05;;;;;;;;;;;16.10;73.70;;;;;;5108726;28;19963;-69
2022/10/22 09:06:19;;;;;;;;;;;16.20;73.90;;;;;;5122551;27;19920;-67
2022/10/22 09:08:45;;;;;;;;;;;16.20;73.80;;;;;;5088839;28;19920;-68
2022/10/22 09:13:53;;;;;;;;;;;16.10;73.80;;;;;;5122714;27;19912;-67
2022/10/22 09:16:23;;;;;;;;;;;16.20;73.80;;;;;;5088494;28;19927;-69
2022/10/22 09:21:48;;;;;;;;;;;16.20;74.00;;;;;;5122961;27;19920;-70
2022/10/22 09:24:18;;;;;;;;;;;16.20;74.00;;;;;;5087731;28;20447;-68
2022/10/22 09:26:43;;;;;;;;;;;16.30;74.70;;;;;;5088468;28;19920;-67
2022/10/22 09:29:16;;;;;;;;;;;16.20;74.10;;;;;;5088462;28;19926;-68
2022/10/22 09:31:41;;;;;;;;;;;16.30;74.30;;;;;;5088458;28;19931;-67
2022/10/22 09:34:07;;;;;;;;;;;16.30;74.30;;;;;;5089309;28;19921;-69
2022/10/22 09:36:33;;;;;;;;;;;16.30;74.40;;;;;;5088464;28;19920;-68
2022/10/22 09:38:59;;;;;;;;;;;16.30;74.50;;;;;;5085326;28;20402;-69
2022/10/22 09:41:28;;;;;;;;;;;16.30;74.50;;;;;;5088032;28;19999;-67
2022/10/22 09:43:54;;;;;;;;;;;16.40;74.50;;;;;;5087991;28;20384;-68
2022/10/22 09:46:21;;;;;;;;;;;16.30;74.50;;;;;;5087904;28;19927;-67
2022/10/22 09:48:49;;;;;;;;;;;16.30;74.50;;;;;;5088907;28;20443;-69
2022/10/22 09:51:23;;;;;;;;;;;16.40;74.50;;;;;;5088121;28;19927;-70
2022/10/22 09:53:57;;;;;;;;;;;16.30;74.50;;;;;;5088352;28;19949;-70
2022/10/22 09:59:02;;;;;;;;;;;16.40;74.50;;;;;;5163260;27;19916;-70
2022/10/22 10:01:30;;;;;;;;;;;16.40;74.50;;;;;;5128603;28;19919;-65
2022/10/22 10:04:12;;;;;;;;;;;16.40;75.00;;;;;;5129056;28;19919;-68
2022/10/22 10:06:39;;;;;;;;;;;16.20;74.60;;;;;;5129385;28;19985;-69
2022/10/22 10:09:13;;;;;;;;;;;16.40;74.60;;;;;;5128904;28;19977;-69
2022/10/22 10:11:59;;;;;;;;;;;16.40;74.60;;;;;;5129041;28;20018;-67
2022/10/22 10:14:35;;;;;;;;;;;16.40;74.20;;;;;;5129026;28;19975;-68
2022/10/22 10:17:08;;;;;;;;;;;16.40;74.30;;;;;;5130351;27;19992;-67
2022/10/22 10:25:00;;;;;;;;;;;16.30;74.10;;;;;;5113832;27;19913;-67
2022/10/22 10:30:15;;;;;;;;;;;16.40;74.10;;;;;;5122889;27;19920;-68
2022/10/22 10:35:55;;;;;;;;;;;16.40;74.20;;;;;;5165166;27;825246;-67
2022/10/22 10:44:12;;;;;;;;;;;16.40;73.90;;;;;;5166324;27;796374;-67
2022/10/22 10:49:21;;;;;;;;;;;16.40;74.00;;;;;;5122970;27;19912;-69
2022/10/22 10:51:52;;;;;;;;;;;16.40;74.00;;;;;;5088797;28;20005;-67
2022/10/22 10:57:19;;;;;;;;;;;16.40;73.90;;;;;;5165730;27;810874;-69
2022/10/22 11:02:33;;;;;;;;;;;16.40;74.00;;;;;;5122918;27;19912;-69
2022/10/22 11:05:10;;;;;;;;;;;16.40;73.90;;;;;;5088840;28;19920;-67
2022/10/22 11:07:39;;;;;;;;;;;16.40;74.00;;;;;;5088512;28;19920;-69
2022/10/22 11:10:12;;;;;;;;;;;16.40;73.90;;;;;;5088514;28;19926;-69
2022/10/22 11:12:40;;;;;;;;;;;16.30;73.70;;;;;;5122512;28;19927;-69
2022/10/22 11:15:25;;;;;;;;;;;16.40;73.90;;;;;;5088412;28;20300;-70
2022/10/22 11:17:51;;;;;;;;;;;16.40;73.80;;;;;;5088402;28;19924;-71
2022/10/22 11:20:20;;;;;;;;;;;16.40;73.90;;;;;;5088319;28;19928;-70
2022/10/22 11:22:50;;;;;;;;;;;16.40;73.90;;;;;;5122666;28;19931;-71
2022/10/22 11:25:18;;;;;;;;;;;16.40;73.80;;;;;;5088232;28;20387;-69
2022/10/22 11:27:47;;;;;;;;;;;16.40;73.80;;;;;;5088374;28;19973;-70
2022/10/22 11:30:15;;;;;;;;;;;16.40;74.60;;;;;;5088095;28;20414;-70
2022/10/22 11:32:41;;;;;;;;;;;16.40;73.80;;;;;;5088037;28;20243;-70
2022/10/22 11:35:10;;;;;;;;;;;16.40;73.90;;;;;;5088081;28;20236;-69
2022/10/22 11:37:37;;;;;;;;;;;16.40;73.90;;;;;;5122041;28;20011;-69
2022/10/22 11:42:46;;;;;;;;;;;16.40;73.80;;;;;;5122922;27;19912;-69
2022/10/22 11:47:56;;;;;;;;;;;16.30;73.70;;;;;;5106541;27;20391;-69
2022/10/22 11:50:24;;;;;;;;;;;16.40;73.80;;;;;;5069491;28;19920;-67
2022/10/22 11:58:31;;;;;;;;;;;16.40;73.80;;;;;;5122586;27;20066;-67
2022/10/22 12:06:48;;;;;;;;;;;16.40;74.00;;;;;;5157937;27;798694;-68
2022/10/22 12:09:13;;;;;;;;;;;16.40;74.00;;;;;;5172534;27;19922;-69
2022/10/22 12:11:46;;;;;;;;;;;16.40;74.00;;;;;;5173903;27;19918;-69
2022/10/22 12:16:53;;;;;;;;;;;16.40;74.00;;;;;;5122610;27;20364;-69
2022/10/22 12:22:05;;;;;;;;;;;16.40;74.00;;;;;;5122952;27;19928;-67
2022/10/22 12:24:33;;;;;;;;;;;16.40;74.10;;;;;;5088564;28;19927;-67
2022/10/22 12:26:58;;;;;;;;;;;16.40;74.00;;;;;;5088743;28;19920;-68
2022/10/22 12:29:25;;;;;;;;;;;16.50;74.00;;;;;;5088468;28;20398;-67
2022/10/22 12:31:51;;;;;;;;;;;16.40;73.80;;;;;;5089769;28;19920;-69
2022/10/22 12:34:17;;;;;;;;;;;16.40;73.90;;;;;;5088579;28;19929;-69
2022/10/22 12:36:45;;;;;;;;;;;16.40;73.90;;;;;;5088803;28;19970;-67
2022/10/22 12:39:15;;;;;;;;;;;16.40;74.00;;;;;;5122430;27;19927;-68
2022/10/22 12:41:41;;;;;;;;;;;16.40;74.00;;;;;;5088133;28;19974;-69
2022/10/22 12:44:06;;;;;;;;;;;16.40;74.00;;;;;;5088606;28;19924;-67
2022/10/22 12:46:34;;;;;;;;;;;16.40;74.00;;;;;;5088156;28;19924;-69
2022/10/22 12:49:01;;;;;;;;;;;16.40;73.90;;;;;;5088167;28;19973;-69
2022/10/22 12:51:27;;;;;;;;;;;16.40;74.00;;;;;;5088066;28;19921;-68
2022/10/22 12:53:54;;;;;;;;;;;16.40;74.00;;;;;;5088349;28;19920;-67
2022/10/22 12:56:21;;;;;;;;;;;16.40;74.00;;;;;;5088204;28;19920;-68
2022/10/22 12:58:51;;;;;;;;;;;16.40;74.00;;;;;;5088345;28;20348;-69
2022/10/22 13:01:17;;;;;;;;;;;16.40;74.70;;;;;;5087827;28;20437;-67
2022/10/22 13:03:44;;;;;;;;;;;16.40;73.90;;;;;;5122224;28;20356;-70
2022/10/22 13:06:11;;;;;;;;;;;16.40;74.00;;;;;;5087889;28;20505;-68
2022/10/22 13:08:37;;;;;;;;;;;16.40;74.00;;;;;;5087852;28;20004;-67
2022/10/22 13:11:06;;;;;;;;;;;16.40;74.00;;;;;;5088949;28;20066;-67
2022/10/22 13:13:33;;;;;;;;;;;16.40;74.00;;;;;;5087697;28;19921;-67
2022/10/22 13:16:18;;;;;;;;;;;16.40;73.90;;;;;;5087553;28;19926;-67
2022/10/22 13:18:44;;;;;;;;;;;16.40;73.80;;;;;;5088773;28;20353;-68
2022/10/22 13:21:21;;;;;;;;;;;16.40;74.00;;;;;;5087059;28;20007;-69
2022/10/22 13:23:51;;;;;;;;;;;16.40;74.00;;;;;;5087476;28;19927;-67
2022/10/22 13:26:17;;;;;;;;;;;16.40;73.90;;;;;;5088722;28;20380;-67
2022/10/22 13:28:48;;;;;;;;;;;16.40;73.90;;;;;;5121507;28;19974;-67
2022/10/22 13:31:18;;;;;;;;;;;16.40;73.90;;;;;;5085718;28;20391;-69
2022/10/22 13:33:45;;;;;;;;;;;16.40;73.80;;;;;;5075076;28;19920;-67
2022/10/22 13:36:12;;;;;;;;;;;16.40;73.90;;;;;;5074019;28;20003;-67
2022/10/22 13:38:38;;;;;;;;;;;16.40;73.90;;;;;;5073654;28;19999;-67
2022/10/22 13:41:04;;;;;;;;;;;16.40;73.90;;;;;;5073626;28;20016;-67
2022/10/22 13:43:29;;;;;;;;;;;16.40;73.90;;;;;;5073609;28;19973;-67
2022/10/22 13:45:57;;;;;;;;;;;16.40;73.90;;;;;;5075015;28;19920;-67
2022/10/22 13:48:23;;;;;;;;;;;16.40;73.80;;;;;;5074780;28;20007;-67
2022/10/22 13:50:49;;;;;;;;;;;16.40;73.90;;;;;;5073822;28;19927;-67
2022/10/22 13:53:16;;;;;;;;;;;16.40;73.90;;;;;;5073356;28;20379;-67
2022/10/22 13:55:44;;;;;;;;;;;16.40;73.80;;;;;;5075038;28;20292;-67
2022/10/22 13:58:10;;;;;;;;;;;16.40;73.80;;;;;;5074704;28;20368;-67
2022/10/22 14:00:38;;;;;;;;;;;16.40;73.80;;;;;;5073982;28;20372;-67
2022/10/22 14:03:04;;;;;;;;;;;16.40;73.80;;;;;;5073530;28;19959;-67
2022/10/22 14:05:31;;;;;;;;;;;16.40;73.90;;;;;;5073562;28;19927;-70
2022/10/22 14:07:58;;;;;;;;;;;16.40;73.90;;;;;;5073443;28;19920;-67
2022/10/22 14:10:24;;;;;;;;;;;16.40;73.80;;;;;;5074490;28;20053;-66
2022/10/22 14:12:50;;;;;;;;;;;16.40;73.90;;;;;;5073425;28;19952;-66
2022/10/22 14:15:17;;;;;;;;;;;16.40;73.80;;;;;;5073079;28;19920;-67
2022/10/22 14:17:45;;;;;;;;;;;16.40;73.80;;;;;;5073312;28;20330;-66
2022/10/22 14:20:17;;;;;;;;;;;16.40;73.80;;;;;;5072948;28;20415;-67
2022/10/22 14:22:44;;;;;;;;;;;16.40;73.80;;;;;;5072469;28;20117;-67
2022/10/22 14:25:12;;;;;;;;;;;16.40;73.80;;;;;;5072692;28;19920;-67
2022/10/22 14:27:38;;;;;;;;;;;16.40;73.70;;;;;;5073044;28;19966;-67
2022/10/22 14:30:03;;;;;;;;;;;16.50;73.80;;;;;;5073973;28;19940;-67
2022/10/22 14:32:29;;;;;;;;;;;16.40;73.60;;;;;;5072858;28;19920;-67
2022/10/22 14:34:54;;;;;;;;;;;16.50;73.70;;;;;;5072875;28;19920;-66
2022/10/22 14:37:22;;;;;;;;;;;16.40;73.70;;;;;;5074141;28;20458;-66
2022/10/22 14:39:51;;;;;;;;;;;16.50;73.60;;;;;;5072656;28;19975;-66
2022/10/22 14:42:17;;;;;;;;;;;16.50;73.50;;;;;;5072095;28;19927;-65
2022/10/22 14:44:43;;;;;;;;;;;16.50;73.50;;;;;;5073154;28;20363;-67
2022/10/22 14:47:08;;;;;;;;;;;16.50;74.80;;;;;;5089726;28;20019;-68
2022/10/22 14:49:34;;;;;;;;;;;16.50;73.80;;;;;;5070990;28;19921;-67
2022/10/22 14:52:00;;;;;;;;;;;16.50;73.80;;;;;;5071890;28;20300;-67
2022/10/22 14:54:25;;;;;;;;;;;16.50;73.80;;;;;;5072148;28;19926;-67
2022/10/22 14:56:51;;;;;;;;;;;16.50;73.80;;;;;;5073748;28;19924;-68
2022/10/22 14:59:16;;;;;;;;;;;16.50;73.80;;;;;;5072441;28;19926;-70
2022/10/22 15:01:42;;;;;;;;;;;16.50;73.80;;;;;;5072101;28;20376;-67
2022/10/22 15:04:07;;;;;;;;;;;16.50;73.90;;;;;;5072219;28;19928;-67
2022/10/22 15:06:33;;;;;;;;;;;16.50;73.80;;;;;;5071907;28;19924;-70
2022/10/22 15:08:59;;;;;;;;;;;16.50;73.80;;;;;;5073297;28;19927;-70
2022/10/22 15:11:24;;;;;;;;;;;16.50;73.80;;;;;;5071905;28;19927;-67
2022/10/22 15:13:50;;;;;;;;;;;16.40;73.80;;;;;;5072508;28;19921;-67
2022/10/22 15:16:17;;;;;;;;;;;16.50;73.80;;;;;;5072006;28;20265;-70
2022/10/22 15:18:42;;;;;;;;;;;16.50;73.80;;;;;;5073279;28;19927;-67
2022/10/22 15:21:13;;;;;;;;;;;16.50;73.80;;;;;;5071267;28;19924;-67
2022/10/22 15:23:39;;;;;;;;;;;16.30;73.60;;;;;;5072075;28;19963;-67
2022/10/22 15:26:06;;;;;;;;;;;16.50;73.70;;;;;;5072869;28;19966;-67
2022/10/22 15:28:32;;;;;;;;;;;16.50;73.70;;;;;;5072064;28;19947;-67
2022/10/22 15:30:59;;;;;;;;;;;16.50;73.70;;;;;;5071518;28;20436;-69